Time;durP1;ratioP1;P1;durP2;ratioP2;P2;SDS_P1;SDS_P2;PMS_P1;PMS_P2;Temp;Humidity;BMP_temperature;BMP_pressure;BME280_temperature;BME280_humidity;BME280_pressure;Samples;Min_cycle;Max_cycle;Signal;HPM_P1;HPM_P2
2023/06/30 00:01:36;;;;;;;5.32;4.80;;;18.80;99.90;;;;;;5020669;28;20030;-56
2023/06/30 00:04:02;;;;;;;5.22;4.78;;;18.80;99.90;;;;;;5017308;28;20033;-56
2023/06/30 00:06:27;;;;;;;5.43;5.03;;;18.80;99.90;;;;;;5020319;28;20060;-56
2023/06/30 00:08:53;;;;;;;5.15;4.75;;;18.80;99.90;;;;;;5020256;28;20100;-57
2023/06/30 00:11:23;;;;;;;5.00;4.50;;;18.70;99.90;;;;;;5016578;28;20105;-56
2023/06/30 00:13:55;;;;;;;4.82;4.53;;;18.70;99.90;;;;;;5022678;28;20646;-57
2023/06/30 00:16:20;;;;;;;5.63;5.00;;;18.70;99.90;;;;;;5015786;28;20038;-55
2023/06/30 00:18:46;;;;;;;11.70;5.03;;;18.70;99.90;;;;;;5017317;28;20881;-57
2023/06/30 00:21:13;;;;;;;4.65;4.35;;;18.60;99.90;;;;;;5020413;28;20042;-57
2023/06/30 00:23:38;;;;;;;6.18;5.68;;;18.60;99.90;;;;;;5017840;28;20573;-57
2023/06/30 00:26:04;;;;;;;5.68;5.15;;;18.60;99.90;;;;;;5021203;28;20025;-56
2023/06/30 00:28:30;;;;;;;5.63;5.00;;;18.60;99.90;;;;;;5018543;28;20025;-57
2023/06/30 00:30:55;;;;;;;5.53;5.13;;;18.60;99.90;;;;;;5019158;28;20393;-57
2023/06/30 00:33:21;;;;;;;5.72;5.22;;;18.60;99.90;;;;;;5016662;28;20026;-55
2023/06/30 00:35:46;;;;;;;6.72;6.15;;;18.60;99.90;;;;;;5021640;28;20163;-54
2023/06/30 00:38:12;;;;;;;4.95;4.47;;;18.60;99.90;;;;;;5018694;28;20034;-56
2023/06/30 00:40:38;;;;;;;5.72;4.50;;;18.60;99.90;;;;;;5017136;28;20032;-54
2023/06/30 00:43:03;;;;;;;7.63;5.43;;;18.60;99.90;;;;;;5020357;28;20033;-57
2023/06/30 00:45:29;;;;;;;5.78;4.38;;;18.50;99.90;;;;;;5020626;28;20029;-56
2023/06/30 00:47:55;;;;;;;5.30;4.97;;;18.50;99.90;;;;;;5019895;28;20029;-55
2023/06/30 00:50:21;;;;;;;5.20;4.70;;;18.50;99.90;;;;;;5019116;28;20044;-57
2023/06/30 00:52:49;;;;;;;7.00;5.20;;;18.40;99.90;;;;;;5019468;28;20030;-56
2023/06/30 00:55:16;;;;;;;6.18;5.57;;;18.40;99.90;;;;;;5014912;28;20026;-57
2023/06/30 00:57:42;;;;;;;6.25;5.85;;;18.40;99.90;;;;;;5018419;28;20036;-56
2023/06/30 01:00:11;;;;;;;6.47;5.97;;;18.40;99.90;;;;;;5019273;28;20030;-56
2023/06/30 01:03:03;;;;;;;6.10;5.70;;;18.40;99.90;;;;;;5018926;28;20028;-56
2023/06/30 01:05:51;;;;;;;5.72;5.32;;;18.30;99.90;;;;;;5018784;28;20083;-57
2023/06/30 01:08:22;;;;;;;6.00;5.53;;;18.30;99.90;;;;;;5017070;28;20468;-56
2023/06/30 01:10:49;;;;;;;6.38;5.88;;;18.30;99.90;;;;;;5016884;28;20022;-56
2023/06/30 01:13:16;;;;;;;6.10;5.70;;;18.20;99.90;;;;;;5017170;28;20069;-55
2023/06/30 01:15:43;;;;;;;8.40;6.35;;;18.20;99.90;;;;;;5017767;28;20041;-56
2023/06/30 01:18:11;;;;;;;6.35;5.88;;;18.20;99.90;;;;;;5019877;28;20029;-56
2023/06/30 01:20:40;;;;;;;6.25;5.85;;;18.10;99.90;;;;;;5015696;28;20379;-56
2023/06/30 01:23:11;;;;;;;6.18;5.68;;;18.10;99.90;;;;;;5016695;28;20037;-56
2023/06/30 01:25:38;;;;;;;5.50;5.00;;;18.10;99.90;;;;;;5019285;28;20029;-56
2023/06/30 01:28:04;;;;;;;6.00;5.40;;;18.00;99.90;;;;;;5016835;28;20782;-56
2023/06/30 01:30:30;;;;;;;5.20;4.70;;;17.90;99.90;;;;;;5017664;28;20084;-57
2023/06/30 01:32:58;;;;;;;6.20;5.60;;;17.90;99.90;;;;;;5016722;28;20045;-55
2023/06/30 01:35:27;;;;;;;6.53;6.03;;;17.80;99.90;;;;;;5018134;28;20076;-57
2023/06/30 01:37:53;;;;;;;6.45;5.85;;;17.80;99.90;;;;;;5017732;28;20018;-56
2023/06/30 01:40:20;;;;;;;6.45;5.85;;;17.70;99.90;;;;;;5018892;28;20091;-57
2023/06/30 01:42:47;;;;;;;7.97;7.20;;;17.70;99.90;;;;;;5019177;28;20366;-56
2023/06/30 01:45:14;;;;;;;6.85;6.35;;;17.70;99.90;;;;;;5017951;28;20030;-56
2023/06/30 01:47:40;;;;;;;6.40;5.90;;;17.70;99.90;;;;;;5016862;28;20497;-56
2023/06/30 01:50:07;;;;;;;7.00;6.50;;;17.70;99.90;;;;;;5014601;28;20076;-56
2023/06/30 01:52:32;;;;;;;6.90;6.40;;;17.70;99.90;;;;;;5016886;28;20041;-56
2023/06/30 01:54:58;;;;;;;6.72;6.22;;;17.70;99.90;;;;;;5017612;28;20033;-56
2023/06/30 01:57:24;;;;;;;6.97;6.47;;;17.70;99.90;;;;;;5018066;28;20645;-57
2023/06/30 01:59:49;;;;;;;7.05;6.38;;;17.70;99.90;;;;;;5019958;28;20046;-56
2023/06/30 02:02:15;;;;;;;6.40;5.90;;;17.60;99.90;;;;;;5019741;28;20036;-58
2023/06/30 02:04:40;;;;;;;6.25;5.65;;;17.70;99.90;;;;;;5017876;28;20108;-58
2023/06/30 02:07:06;;;;;;;6.20;5.60;;;17.60;99.90;;;;;;5016278;28;20109;-59
2023/06/30 02:09:32;;;;;;;6.15;5.70;;;17.60;99.90;;;;;;5017699;28;20029;-58
2023/06/30 02:11:58;;;;;;;5.85;5.45;;;17.60;99.90;;;;;;5021395;28;20481;-59
2023/06/30 02:14:23;;;;;;;7.45;6.00;;;17.60;99.90;;;;;;5016671;28;20056;-59
2023/06/30 02:16:49;;;;;;;6.43;6.03;;;17.50;99.90;;;;;;5020324;28;20029;-59
2023/06/30 02:19:14;;;;;;;9.38;6.10;;;17.50;99.90;;;;;;5017146;28;20481;-57
2023/06/30 02:21:41;;;;;;;7.45;6.95;;;17.50;99.90;;;;;;5016217;28;20289;-56
2023/06/30 02:24:07;;;;;;;6.85;6.43;;;17.40;99.90;;;;;;5018898;28;20149;-56
2023/06/30 02:26:33;;;;;;;7.55;6.97;;;17.40;99.90;;;;;;5018770;28;20205;-57
2023/06/30 02:28:59;;;;;;;6.57;6.07;;;17.40;99.90;;;;;;5018467;28;20113;-57
2023/06/30 02:31:25;;;;;;;7.78;7.03;;;17.40;99.90;;;;;;5016791;28;20429;-57
2023/06/30 02:33:52;;;;;;;8.55;7.65;;;17.30;99.90;;;;;;5015674;28;20517;-57
2023/06/30 02:36:18;;;;;;;7.50;6.70;;;17.30;99.90;;;;;;5017559;28;20068;-57
2023/06/30 02:38:44;;;;;;;7.88;7.28;;;17.30;99.90;;;;;;5017606;28;20506;-57
2023/06/30 02:41:09;;;;;;;7.55;6.95;;;17.30;99.90;;;;;;5018158;28;20575;-57
2023/06/30 02:43:35;;;;;;;7.07;6.57;;;17.20;99.90;;;;;;5014735;28;20500;-56
2023/06/30 02:46:01;;;;;;;9.75;6.90;;;17.20;99.90;;;;;;5019171;28;20040;-56
2023/06/30 02:48:26;;;;;;;6.80;6.20;;;17.20;99.90;;;;;;5015532;28;20574;-56
2023/06/30 02:50:52;;;;;;;7.47;6.78;;;17.10;99.90;;;;;;5019653;28;20041;-56
2023/06/30 02:53:17;;;;;;;7.53;6.93;;;17.10;99.90;;;;;;5017104;28;20163;-55
2023/06/30 02:55:43;;;;;;;7.88;7.18;;;17.10;99.90;;;;;;5018406;28;20060;-57
2023/06/30 02:58:09;;;;;;;7.78;7.18;;;17.00;99.90;;;;;;5014793;28;20038;-56
2023/06/30 03:00:34;;;;;;;7.35;6.70;;;17.00;99.90;;;;;;5015930;28;20509;-57
2023/06/30 03:03:00;;;;;;;9.27;7.53;;;16.90;99.90;;;;;;5018625;28;20698;-57
2023/06/30 03:05:25;;;;;;;7.80;7.20;;;16.90;99.90;;;;;;5015930;28;20109;-56
2023/06/30 03:07:51;;;;;;;8.65;8.02;;;16.90;99.90;;;;;;5015443;28;20030;-57
2023/06/30 03:10:17;;;;;;;7.55;6.97;;;16.90;99.90;;;;;;5015081;28;20033;-56
2023/06/30 03:12:42;;;;;;;7.38;6.65;;;16.90;99.90;;;;;;5019010;28;20030;-55
2023/06/30 03:15:08;;;;;;;6.97;6.30;;;16.80;99.90;;;;;;5017975;28;20041;-55
2023/06/30 03:17:34;;;;;;;7.20;6.57;;;16.80;99.90;;;;;;5018282;28;20034;-57
2023/06/30 03:20:00;;;;;;;7.75;7.15;;;16.70;99.90;;;;;;5015254;28;20104;-55
2023/06/30 03:22:25;;;;;;;7.18;6.68;;;16.70;99.90;;;;;;5014527;28;20026;-55
2023/06/30 03:24:51;;;;;;;7.50;6.90;;;16.70;99.90;;;;;;5014028;28;20505;-56
2023/06/30 03:27:16;;;;;;;7.65;7.15;;;16.70;99.90;;;;;;5014530;28;20481;-57
2023/06/30 03:29:42;;;;;;;8.23;7.68;;;16.70;99.90;;;;;;5015928;28;20053;-55
2023/06/30 03:32:08;;;;;;;8.90;8.30;;;16.70;99.90;;;;;;5012212;28;20413;-56
2023/06/30 03:34:33;;;;;;;9.25;8.35;;;16.70;99.90;;;;;;5016396;28;20121;-55
2023/06/30 03:36:59;;;;;;;9.38;8.73;;;16.70;99.90;;;;;;5015879;28;20022;-56
2023/06/30 03:39:24;;;;;;;8.13;7.47;;;16.70;99.90;;;;;;5017583;28;20121;-57
2023/06/30 03:41:50;;;;;;;8.40;7.72;;;16.70;99.90;;;;;;5019443;28;20070;-57
2023/06/30 03:44:17;;;;;;;8.52;7.93;;;16.70;99.90;;;;;;5015964;28;20029;-56
2023/06/30 03:46:43;;;;;;;8.73;8.18;;;16.70;99.90;;;;;;5011659;28;20030;-57
2023/06/30 03:49:09;;;;;;;9.40;8.60;;;16.70;99.90;;;;;;4999272;28;20045;-56
2023/06/30 03:51:34;;;;;;;8.18;7.47;;;16.70;99.90;;;;;;5014119;28;20089;-56
2023/06/30 03:54:00;;;;;;;8.73;8.02;;;16.70;99.90;;;;;;5018629;28;20087;-57
2023/06/30 03:56:25;;;;;;;8.05;7.55;;;16.80;99.90;;;;;;5017960;28;20041;-56
2023/06/30 03:58:51;;;;;;;8.77;8.00;;;16.80;99.90;;;;;;5019171;28;20053;-57
2023/06/30 04:01:16;;;;;;;10.48;8.20;;;16.80;99.90;;;;;;5020462;28;20072;-56
2023/06/30 04:03:42;;;;;;;8.93;8.32;;;16.80;99.90;;;;;;5021727;28;20099;-56
2023/06/30 04:06:11;;;;;;;9.00;8.18;;;16.90;99.90;;;;;;5020065;28;20033;-54
2023/06/30 04:08:37;;;;;;;8.02;7.38;;;16.90;99.90;;;;;;5015627;28;20092;-56
2023/06/30 04:11:02;;;;;;;8.82;8.07;;;16.90;99.90;;;;;;5019030;28;20417;-56
2023/06/30 04:13:28;;;;;;;8.20;7.60;;;17.00;99.90;;;;;;5017918;28;20022;-56
2023/06/30 04:15:53;;;;;;;8.63;7.82;;;17.00;99.90;;;;;;5017536;28;20034;-58
2023/06/30 04:18:19;;;;;;;8.05;7.45;;;17.10;99.90;;;;;;5016790;28;20037;-56
2023/06/30 04:20:46;;;;;;;8.18;7.57;;;17.10;99.90;;;;;;5018205;28;20018;-57
2023/06/30 04:23:12;;;;;;;7.90;7.32;;;17.10;99.90;;;;;;5019685;28;20041;-55
2023/06/30 04:25:37;;;;;;;12.07;7.82;;;17.10;99.90;;;;;;5019882;28;20092;-55
2023/06/30 04:28:03;;;;;;;12.38;7.72;;;17.20;99.90;;;;;;5019445;28;20036;-57
2023/06/30 04:30:28;;;;;;;7.78;7.28;;;17.20;99.90;;;;;;5019486;28;20030;-57
2023/06/30 04:32:54;;;;;;;10.00;7.93;;;17.30;99.90;;;;;;5026464;28;20057;-57
2023/06/30 04:35:24;;;;;;;8.30;7.70;;;17.30;99.90;;;;;;5021471;28;20528;-57
2023/06/30 04:37:51;;;;;;;9.60;8.70;;;17.30;99.90;;;;;;5020641;28;20100;-57
2023/06/30 04:40:16;;;;;;;9.80;8.90;;;17.30;99.90;;;;;;5020195;28;20025;-56
2023/06/30 04:42:42;;;;;;;9.85;9.05;;;17.40;99.90;;;;;;5016678;28;20064;-56
2023/06/30 04:45:08;;;;;;;9.07;8.25;;;17.40;99.90;;;;;;5015220;28;20038;-56
2023/06/30 04:47:33;;;;;;;8.35;7.75;;;17.40;99.90;;;;;;5023648;28;20064;-55
2023/06/30 04:49:59;;;;;;;8.93;8.30;;;17.50;99.90;;;;;;5018714;28;20079;-59
2023/06/30 04:52:24;;;;;;;10.02;9.27;;;17.70;99.90;;;;;;5019690;28;20026;-59
2023/06/30 04:54:50;;;;;;;9.73;8.93;;;17.70;99.90;;;;;;5019360;28;20045;-56
2023/06/30 04:57:16;;;;;;;8.95;8.25;;;17.80;99.90;;;;;;5019058;28;20043;-55
2023/06/30 04:59:41;;;;;;;10.60;9.73;;;17.80;99.90;;;;;;5019681;28;20033;-57
2023/06/30 05:02:07;;;;;;;10.07;9.38;;;17.80;99.90;;;;;;5018699;28;20018;-56
2023/06/30 05:04:33;;;;;;;9.75;9.00;;;17.80;99.90;;;;;;5017587;28;20018;-56
2023/06/30 05:06:58;;;;;;;8.82;8.23;;;17.90;99.90;;;;;;5022031;28;20033;-56
2023/06/30 05:09:24;;;;;;;8.85;8.15;;;18.00;99.90;;;;;;5017618;28;20117;-54
2023/06/30 05:11:50;;;;;;;8.90;8.23;;;18.10;99.90;;;;;;5015276;28;20561;-55
2023/06/30 05:14:16;;;;;;;8.60;7.90;;;18.20;99.90;;;;;;5017888;28;20030;-57
2023/06/30 05:16:42;;;;;;;8.57;7.85;;;18.20;99.90;;;;;;5020898;28;20022;-57
2023/06/30 05:19:07;;;;;;;8.75;7.95;;;18.30;99.90;;;;;;5020881;28;20045;-55
2023/06/30 05:21:33;;;;;;;8.68;8.07;;;18.30;99.90;;;;;;5019664;28;20038;-57
2023/06/30 05:23:59;;;;;;;8.93;8.32;;;18.40;99.90;;;;;;5019318;28;20378;-56
2023/06/30 05:26:24;;;;;;;8.40;7.75;;;18.40;99.90;;;;;;5018951;28;20531;-56
2023/06/30 05:28:50;;;;;;;8.82;7.90;;;18.50;99.90;;;;;;5013267;28;20056;-56
2023/06/30 05:31:15;;;;;;;9.07;8.25;;;18.50;99.90;;;;;;5016983;28;20030;-57
2023/06/30 05:33:41;;;;;;;8.98;8.13;;;18.60;99.90;;;;;;5017396;28;20034;-56
2023/06/30 05:36:07;;;;;;;9.38;8.68;;;18.70;99.90;;;;;;5019097;28;20036;-55
2023/06/30 05:38:32;;;;;;;9.45;8.27;;;18.80;99.90;;;;;;5017081;28;20033;-57
2023/06/30 05:40:58;;;;;;;10.10;9.30;;;18.80;99.90;;;;;;5021411;28;20029;-56
2023/06/30 05:43:24;;;;;;;9.32;8.18;;;18.90;99.90;;;;;;5020406;28;20544;-57
2023/06/30 05:45:50;;;;;;;12.35;8.13;;;19.00;99.90;;;;;;5018875;28;20167;-56
2023/06/30 05:48:16;;;;;;;9.30;8.55;;;19.00;99.90;;;;;;5021429;28;20033;-56
2023/06/30 05:50:42;;;;;;;8.70;8.10;;;19.10;99.90;;;;;;5019702;28;20836;-56
2023/06/30 05:53:08;;;;;;;9.07;8.15;;;19.10;99.90;;;;;;5019642;28;20127;-57
2023/06/30 05:55:34;;;;;;;9.75;8.95;;;19.20;99.90;;;;;;5021027;28;20036;-56
2023/06/30 05:57:59;;;;;;;10.05;9.23;;;19.30;99.90;;;;;;5019531;28;20030;-56
2023/06/30 06:00:25;;;;;;;9.30;8.65;;;19.40;99.90;;;;;;5019259;28;20026;-56
2023/06/30 06:02:51;;;;;;;8.93;8.23;;;19.50;99.90;;;;;;5018174;28;20327;-56
2023/06/30 06:05:17;;;;;;;9.50;8.70;;;19.50;99.90;;;;;;5022775;28;20025;-57
2023/06/30 06:07:43;;;;;;;9.75;9.05;;;19.70;99.90;;;;;;5018913;28;20025;-55
2023/06/30 06:10:09;;;;;;;8.65;8.05;;;19.70;99.90;;;;;;5020384;28;20044;-55
2023/06/30 06:12:35;;;;;;;9.02;8.32;;;19.80;99.90;;;;;;5020464;28;20032;-55
2023/06/30 06:15:00;;;;;;;9.32;8.63;;;19.80;99.90;;;;;;5018445;28;20575;-56
2023/06/30 06:17:26;;;;;;;8.93;7.70;;;19.90;99.90;;;;;;5021798;28;20033;-57
2023/06/30 06:19:52;;;;;;;9.10;8.20;;;20.00;99.90;;;;;;5020605;28;20022;-56
2023/06/30 06:22:18;;;;;;;8.95;7.63;;;20.00;99.90;;;;;;5019628;28;20044;-57
2023/06/30 06:24:44;;;;;;;9.00;8.23;;;20.00;99.90;;;;;;5005943;28;20388;-56
2023/06/30 06:27:09;;;;;;;8.93;8.13;;;20.10;99.90;;;;;;5009466;28;20519;-56
2023/06/30 06:29:35;;;;;;;8.30;7.50;;;20.20;99.90;;;;;;5020862;28;20516;-57
2023/06/30 06:32:00;;;;;;;8.52;7.93;;;20.30;99.90;;;;;;5018886;28;20029;-56
2023/06/30 06:34:27;;;;;;;10.05;8.30;;;20.40;99.90;;;;;;5019075;28;20523;-57
2023/06/30 06:36:53;;;;;;;8.98;8.07;;;20.50;99.90;;;;;;5017536;28;20049;-57
2023/06/30 06:39:19;;;;;;;8.55;7.88;;;20.70;99.90;;;;;;5013762;28;20030;-58
2023/06/30 06:41:45;;;;;;;7.80;7.15;;;20.70;99.90;;;;;;5018673;28;20043;-57
2023/06/30 06:44:10;;;;;;;7.18;6.68;;;20.90;99.90;;;;;;5018460;28;20397;-56
2023/06/30 06:46:36;;;;;;;6.68;6.15;;;21.00;99.90;;;;;;5018251;28;20053;-57
2023/06/30 06:49:02;;;;;;;5.97;5.47;;;21.20;99.90;;;;;;5014305;28;20478;-57
2023/06/30 06:51:27;;;;;;;6.38;5.88;;;21.30;99.90;;;;;;5018005;28;20433;-57
2023/06/30 06:53:53;;;;;;;6.65;6.15;;;21.40;99.90;;;;;;5017065;28;20021;-58
2023/06/30 06:56:19;;;;;;;6.53;6.03;;;21.50;99.90;;;;;;5020719;28;20084;-56
2023/06/30 06:58:45;;;;;;;7.53;6.43;;;21.80;99.90;;;;;;5018505;28;20053;-58
2023/06/30 07:01:11;;;;;;;7.35;6.72;;;22.00;99.90;;;;;;5018034;28;20125;-58
2023/06/30 07:03:37;;;;;;;7.18;6.30;;;22.20;99.90;;;;;;5014885;28;20033;-57
2023/06/30 07:06:03;;;;;;;6.25;5.80;;;22.20;99.90;;;;;;5013503;28;20022;-57
2023/06/30 07:08:34;;;;;;;6.32;5.30;;;22.40;99.90;;;;;;5016465;28;20485;-56
2023/06/30 07:11:00;;;;;;;;;;;22.60;99.90;;;;;;5017130;28;20454;-58
2023/06/30 07:13:26;;;;;;;7.30;5.50;;;22.70;99.90;;;;;;5016786;28;19921;-56
2023/06/30 07:15:51;;;;;;;5.78;5.05;;;22.90;99.90;;;;;;5016930;28;20634;-58
2023/06/30 07:18:17;;;;;;;5.18;4.78;;;23.00;99.90;;;;;;5016338;28;20057;-58
2023/06/30 07:20:54;;;;;;;5.93;5.20;;;23.10;99.90;;;;;;5014607;28;20032;-58
2023/06/30 07:23:19;;;;;;;9.15;5.82;;;23.20;99.90;;;;;;5018461;28;20029;-57
2023/06/30 07:25:45;;;;;;;6.50;5.85;;;23.20;99.90;;;;;;5018461;28;20095;-58
2023/06/30 07:28:12;;;;;;;6.07;5.57;;;23.10;99.90;;;;;;5021657;28;20119;-57
2023/06/30 07:30:39;;;;;;;5.65;4.97;;;23.20;99.90;;;;;;5018183;28;20034;-58
2023/06/30 07:33:05;;;;;;;6.68;6.05;;;23.20;99.90;;;;;;5019760;28;20691;-58
2023/06/30 07:35:30;;;;;;;5.90;5.43;;;23.20;99.90;;;;;;5020060;28;20046;-56
2023/06/30 07:37:56;;;;;;;6.13;5.47;;;23.10;99.90;;;;;;5019296;28;20029;-57
2023/06/30 07:40:22;;;;;;;7.15;5.30;;;23.20;99.90;;;;;;5016189;28;20022;-57
2023/06/30 07:42:47;;;;;;;5.55;5.13;;;23.30;99.90;;;;;;5022427;28;20021;-59
2023/06/30 07:45:15;;;;;;;7.75;5.07;;;23.20;99.90;;;;;;5019540;28;20030;-57
2023/06/30 07:47:42;;;;;;;4.60;4.22;;;23.30;99.90;;;;;;5021266;28;20482;-57
2023/06/30 07:50:12;;;;;;;5.28;4.78;;;23.40;99.90;;;;;;5022167;28;20401;-58
2023/06/30 07:52:47;;;;;;;4.50;4.18;;;23.30;99.90;;;;;;5018653;28;20080;-57
2023/06/30 07:55:18;;;;;;;6.15;5.35;;;23.40;99.90;;;;;;5020074;28;20037;-57
2023/06/30 07:57:45;;;;;;;5.78;5.25;;;23.60;99.90;;;;;;5020363;28;20034;-57
2023/06/30 08:00:15;;;;;;;5.38;4.80;;;23.90;99.90;;;;;;5018545;28;20113;-57
2023/06/30 08:02:44;;;;;;;5.00;4.65;;;24.30;99.90;;;;;;5020774;28;20037;-56
2023/06/30 08:05:10;;;;;;;5.90;5.20;;;24.50;99.90;;;;;;5018069;28;20449;-59
2023/06/30 08:07:36;;;;;;;5.35;4.95;;;24.80;99.90;;;;;;5021552;28;20024;-57
2023/06/30 08:10:03;;;;;;;5.20;4.78;;;25.10;99.90;;;;;;5017374;28;20026;-58
2023/06/30 08:12:28;;;;;;;5.30;4.28;;;25.20;99.90;;;;;;5021202;28;20026;-57
2023/06/30 08:14:54;;;;;;;5.03;4.57;;;25.40;99.90;;;;;;5015934;28;20473;-58
2023/06/30 08:17:20;;;;;;;5.57;5.00;;;25.60;99.90;;;;;;5017971;28;20026;-58
2023/06/30 08:19:45;;;;;;;4.90;4.28;;;25.60;99.90;;;;;;5019545;28;20145;-58
2023/06/30 08:22:15;;;;;;;6.50;4.40;;;25.70;99.90;;;;;;5019309;28;20038;-57
2023/06/30 08:24:43;;;;;;;5.07;4.67;;;25.90;99.90;;;;;;5023212;28;20030;-57
2023/06/30 08:27:09;;;;;;;4.72;4.32;;;26.20;99.90;;;;;;5016968;28;20276;-58
2023/06/30 08:29:36;;;;;;;4.47;3.85;;;26.10;98.30;;;;;;5019069;28;20042;-57
2023/06/30 08:32:02;;;;;;;5.68;4.38;;;26.30;96.00;;;;;;5021288;28;20087;-57
2023/06/30 08:34:28;;;;;;;4.53;4.13;;;26.40;98.40;;;;;;5019426;28;20621;-57
2023/06/30 08:36:55;;;;;;;5.15;4.13;;;26.30;96.60;;;;;;5020147;28;20379;-56
2023/06/30 08:39:22;;;;;;;4.70;4.30;;;26.20;94.30;;;;;;5020104;28;20057;-56
2023/06/30 08:41:53;;;;;;;4.70;4.28;;;26.20;95.20;;;;;;5020065;28;20025;-57
2023/06/30 08:44:25;;;;;;;7.18;3.90;;;26.20;93.80;;;;;;5015658;28;20559;-57
2023/06/30 08:46:54;;;;;;;4.65;4.22;;;26.30;95.40;;;;;;5018766;28;20017;-55
2023/06/30 08:49:22;;;;;;;4.72;3.97;;;26.20;93.80;;;;;;5026784;28;20572;-58
2023/06/30 08:51:52;;;;;;;3.55;3.25;;;26.10;93.30;;;;;;5015783;28;20058;-58
2023/06/30 08:54:18;;;;;;;4.15;3.83;;;26.10;92.90;;;;;;5020613;28;20038;-58
2023/06/30 08:56:44;;;;;;;6.28;4.00;;;26.00;93.70;;;;;;5019057;28;20049;-58
2023/06/30 08:59:09;;;;;;;6.28;4.15;;;25.90;92.60;;;;;;5017605;28;20041;-57
2023/06/30 09:01:37;;;;;;;5.85;4.15;;;26.00;92.80;;;;;;5017999;28;20041;-57
2023/06/30 09:04:05;;;;;;;4.45;3.92;;;26.10;91.90;;;;;;5015513;28;20032;-58
2023/06/30 09:06:33;;;;;;;4.22;3.83;;;26.30;93.90;;;;;;5021166;28;20026;-58
2023/06/30 09:09:04;;;;;;;4.07;3.78;;;26.40;90.30;;;;;;5014898;28;20469;-59
2023/06/30 09:11:30;;;;;;;;;;;26.50;89.90;;;;;;5021629;28;20053;-57
2023/06/30 09:14:01;;;;;;;4.53;4.13;;;26.70;89.90;;;;;;5019921;28;20388;-58
2023/06/30 09:16:28;;;;;;;5.40;4.90;;;26.90;86.10;;;;;;4997772;28;20042;-57
2023/06/30 09:18:54;;;;;;;5.15;4.32;;;27.10;88.30;;;;;;5010167;28;20064;-58
2023/06/30 09:21:20;;;;;;;5.38;3.95;;;27.30;89.80;;;;;;5016345;28;20057;-58
2023/06/30 09:23:45;;;;;;;5.05;3.67;;;27.50;83.90;;;;;;5018282;28;20022;-57
2023/06/30 09:26:13;;;;;;;5.45;4.00;;;27.70;85.80;;;;;;5018193;28;20026;-58
2023/06/30 09:28:44;;;;;;;5.47;4.15;;;27.80;82.10;;;;;;5016538;28;20009;-57
2023/06/30 09:31:10;;;;;;;4.57;4.18;;;27.80;82.30;;;;;;5018677;28;20034;-58
2023/06/30 09:33:36;;;;;;;4.70;4.18;;;27.70;82.00;;;;;;5016976;28;20042;-58
2023/06/30 09:36:06;;;;;;;4.45;4.05;;;27.70;85.80;;;;;;5019980;28;20493;-59
2023/06/30 09:38:32;;;;;;;4.57;4.18;;;27.60;82.50;;;;;;5013322;28;20030;-58
2023/06/30 09:40:58;;;;;;;5.38;4.38;;;27.70;87.90;;;;;;5018500;28;20044;-58
2023/06/30 09:43:26;;;;;;;5.68;4.30;;;27.80;82.80;;;;;;5017440;28;20026;-58
2023/06/30 09:46:01;;;;;;;4.10;3.80;;;27.90;84.20;;;;;;5016480;28;20022;-57
2023/06/30 09:48:40;;;;;;;6.20;4.80;;;28.10;82.60;;;;;;5018072;28;20659;-56
2023/06/30 09:51:07;;;;;;;5.43;4.95;;;28.10;80.00;;;;;;5015039;28;20026;-58
2023/06/30 09:53:37;;;;;;;5.90;4.68;;;28.00;78.70;;;;;;5017795;28;20045;-58
2023/06/30 09:56:03;;;;;;;6.00;5.17;;;27.90;78.50;;;;;;5020187;28;20025;-57
2023/06/30 09:58:30;;;;;;;6.40;4.43;;;27.80;79.00;;;;;;5017177;28;20334;-57
2023/06/30 10:00:56;;;;;;;5.65;4.95;;;27.80;82.50;;;;;;5019961;28;20069;-57
2023/06/30 10:03:23;;;;;;;6.00;4.75;;;28.00;81.40;;;;;;5021333;28;20053;-58
2023/06/30 10:05:48;;;;;;;4.53;4.13;;;28.20;79.70;;;;;;5018206;28;20517;-59
2023/06/30 10:08:15;;;;;;;4.75;4.32;;;28.40;78.20;;;;;;5019488;28;20033;-58
2023/06/30 10:10:42;;;;;;;5.82;4.68;;;28.60;76.70;;;;;;5021066;28;20025;-57
2023/06/30 10:13:10;;;;;;;5.70;4.97;;;28.70;74.60;;;;;;5020965;28;20025;-58
2023/06/30 10:15:36;;;;;;;4.95;4.47;;;28.70;74.60;;;;;;5017663;28;20034;-57
2023/06/30 10:18:02;;;;;;;5.43;4.68;;;28.80;74.90;;;;;;5018706;28;20025;-58
2023/06/30 10:20:29;;;;;;;5.43;4.93;;;28.60;72.80;;;;;;5021910;28;20041;-58
2023/06/30 10:22:56;;;;;;;5.80;5.30;;;28.70;75.60;;;;;;5018408;28;20030;-59
2023/06/30 10:25:24;;;;;;;6.88;5.68;;;28.90;72.80;;;;;;5017236;28;20037;-57
2023/06/30 10:27:51;;;;;;;6.03;5.38;;;29.00;70.90;;;;;;5015339;28;20512;-58
2023/06/30 10:30:17;;;;;;;5.78;5.25;;;29.10;70.80;;;;;;5016406;28;20053;-57
2023/06/30 10:32:42;;;;;;;6.80;6.10;;;29.00;73.20;;;;;;5018273;28;20061;-59
2023/06/30 10:35:10;;;;;;;12.75;7.07;;;28.90;71.90;;;;;;5018494;28;20065;-58
2023/06/30 10:37:36;;;;;;;6.60;6.05;;;28.70;70.80;;;;;;5017883;28;20033;-58
2023/06/30 10:40:06;;;;;;;7.88;6.70;;;28.60;76.30;;;;;;5017311;28;20040;-58
2023/06/30 10:42:38;;;;;;;;;;;28.70;74.40;;;;;;5017862;28;20064;-57
2023/06/30 10:45:03;;;;;;;;;;;28.50;73.50;;;;;;5016222;28;20447;-57
2023/06/30 10:47:29;;;;;;;;;;;28.20;75.30;;;;;;5012370;28;19910;-58
2023/06/30 10:49:54;;;;;;;;;;;27.90;74.70;;;;;;5015036;28;20324;-58
2023/06/30 10:52:27;;;;;;;;;;;27.60;75.00;;;;;;5016592;28;19913;-58
2023/06/30 10:54:52;;;;;;;;;;;27.40;75.80;;;;;;5019671;28;19921;-58
2023/06/30 10:57:19;;;;;;;;;;;27.50;76.10;;;;;;5015781;28;19916;-58
2023/06/30 11:00:01;;;;;;;;;;;27.60;75.30;;;;;;5019003;28;19916;-59
2023/06/30 11:02:29;;;;;;;;;;;27.80;75.60;;;;;;5019303;28;19940;-58
2023/06/30 11:04:59;;;;;;;;;;;27.80;73.70;;;;;;5019079;28;19909;-58
2023/06/30 11:07:24;;;;;;;;;;;27.90;74.20;;;;;;5020276;28;19913;-58
2023/06/30 11:09:50;;;;;;;;;;;27.90;73.30;;;;;;5026673;28;19920;-58
2023/06/30 11:12:19;;;;;;;;;;;27.90;73.30;;;;;;5021223;28;19916;-58
2023/06/30 11:14:58;;;;;;;;;;;27.90;72.80;;;;;;5020513;28;19923;-58
2023/06/30 11:17:28;;;;;;;;;;;27.90;71.30;;;;;;5021637;28;19971;-57
2023/06/30 11:20:12;;;;;;;;;;;27.90;71.00;;;;;;5022067;28;19963;-59
2023/06/30 11:22:38;;;;;;;;;;;27.80;71.40;;;;;;5020569;28;19920;-57
2023/06/30 11:25:05;;;;;;;;;;;27.80;71.40;;;;;;5016626;28;19910;-56
2023/06/30 11:27:33;;;;;;;;;;;27.80;70.00;;;;;;5021880;28;19967;-57
2023/06/30 11:29:59;;;;;;;;;;;27.90;70.10;;;;;;5020194;28;19909;-58
2023/06/30 11:32:25;;;;;;;;;;;27.90;68.50;;;;;;5021198;28;19917;-59
2023/06/30 11:34:51;;;;;;;;;;;27.80;67.60;;;;;;5019933;28;20274;-59
2023/06/30 11:37:17;;;;;;;;;;;27.70;66.60;;;;;;5021240;28;19964;-57
2023/06/30 11:39:49;;;;;;;;;;;27.60;65.70;;;;;;5019396;28;20266;-57
2023/06/30 11:42:14;;;;;;;;;;;27.40;66.20;;;;;;5021851;28;19913;-58
2023/06/30 11:44:40;;;;;;;;;;;27.30;68.20;;;;;;5020530;28;20295;-58
2023/06/30 11:47:05;;;;;;;;;;;27.30;68.20;;;;;;5021069;28;19909;-57
2023/06/30 11:49:34;;;;;;;;;;;27.30;68.00;;;;;;5024840;28;19905;-59
2023/06/30 11:52:00;;;;;;;;;;;27.30;68.90;;;;;;5019960;28;19912;-58
2023/06/30 11:54:30;;;;;;;;;;;27.50;69.40;;;;;;5019702;28;19917;-58
2023/06/30 11:56:57;;;;;;;;;;;27.70;70.40;;;;;;5022571;28;20416;-57
2023/06/30 11:59:24;;;;;;;;;;;27.90;69.10;;;;;;5024424;28;19948;-57
2023/06/30 12:01:50;;;;;;;;;;;28.10;68.00;;;;;;5021849;28;19913;-57
2023/06/30 12:04:15;;;;;;;;;;;28.30;68.50;;;;;;5020643;28;19996;-58
2023/06/30 12:06:45;;;;;;;;;;;28.40;68.60;;;;;;5020315;28;20335;-57
2023/06/30 12:09:10;;;;;;;;;;;28.50;67.70;;;;;;5020577;28;19967;-57
2023/06/30 12:11:36;;;;;;;;;;;28.40;68.20;;;;;;5021871;28;19980;-58
2023/06/30 12:14:07;;;;;;;;;;;28.30;70.10;;;;;;5018605;28;20371;-57
2023/06/30 12:16:41;;;;;;;;;;;28.20;69.50;;;;;;5018276;28;20281;-58
2023/06/30 12:19:06;;;;;;;;;;;28.10;69.20;;;;;;5019052;28;19967;-57
2023/06/30 12:21:33;;;;;;;;;;;28.00;69.60;;;;;;5022603;28;19909;-58
2023/06/30 12:23:59;;;;;;;;;;;27.70;71.50;;;;;;5023249;28;19909;-58
2023/06/30 12:26:25;;;;;;;;;;;27.60;72.30;;;;;;5017751;28;19913;-59
2023/06/30 12:28:50;;;;;;;;;;;27.40;71.70;;;;;;5020842;28;19905;-58
2023/06/30 12:31:16;;;;;;;;;;;27.30;72.40;;;;;;5019907;28;19920;-57
2023/06/30 12:33:51;;;;;;;;;;;27.20;73.20;;;;;;5017977;28;19971;-57
2023/06/30 12:36:19;;;;;;;;;;;27.10;73.20;;;;;;5023591;28;19924;-57
2023/06/30 12:38:45;;;;;;;;;;;27.10;73.70;;;;;;5015569;28;19928;-57
2023/06/30 12:41:10;;;;;;;;;;;27.00;73.60;;;;;;5015817;28;20634;-57
2023/06/30 12:43:36;;;;;;;;;;;27.00;73.90;;;;;;5019947;28;20328;-57
2023/06/30 12:46:02;;;;;;;;;;;27.00;73.80;;;;;;5019956;28;19913;-57
2023/06/30 12:48:27;;;;;;;;;;;27.20;75.90;;;;;;5023473;28;20395;-57
2023/06/30 12:50:56;;;;;;;;;;;27.30;74.50;;;;;;5020191;28;19958;-58
2023/06/30 12:53:21;;;;;;;;;;;27.40;74.80;;;;;;5018078;28;19963;-58
2023/06/30 12:55:47;;;;;;;;;;;27.60;75.00;;;;;;5018138;28;19916;-58
2023/06/30 12:58:16;;;;;;;;;;;27.60;74.30;;;;;;5020608;28;19917;-58
2023/06/30 13:00:41;;;;;;;;;;;27.70;74.10;;;;;;5020206;28;20027;-58